createdAt,value
2019-03-25T00:00:40.815Z,3.80
2019-03-25T00:03:09.411Z,3.25
2019-03-25T00:05:37.775Z,4.12
2019-03-25T00:08:06.334Z,3.83
2019-03-25T00:10:34.751Z,3.52
2019-03-25T00:13:05.966Z,4.40
2019-03-25T00:15:34.359Z,3.90
2019-03-25T00:18:02.771Z,3.98
2019-03-25T00:20:33.621Z,4.30
2019-03-25T00:23:02.674Z,3.67
2019-03-25T00:25:34.903Z,3.65
2019-03-25T00:28:03.302Z,5.08
2019-03-25T00:30:32.960Z,4.08
2019-03-25T00:33:01.252Z,3.85
2019-03-25T00:35:32.483Z,5.13
2019-03-25T00:38:00.963Z,4.58
2019-03-25T00:40:30.317Z,4.10
2019-03-25T00:42:58.765Z,4.47
2019-03-25T00:45:27.167Z,6.67
2019-03-25T00:47:55.542Z,5.42
2019-03-25T00:50:23.958Z,5.55
2019-03-25T00:52:52.387Z,6.60
2019-03-25T00:55:20.784Z,6.60
2019-03-25T00:57:50.140Z,6.50
2019-03-25T01:00:20.060Z,7.33
2019-03-25T01:02:52.623Z,7.30
2019-03-25T01:05:22.087Z,7.17
2019-03-25T01:07:54.975Z,6.40
2019-03-25T01:10:23.337Z,6.15
2019-03-25T01:12:51.743Z,6.60
2019-03-25T01:15:20.173Z,7.03
2019-03-25T01:17:49.621Z,8.23
2019-03-25T01:20:18.078Z,8.00
2019-03-25T01:22:50.087Z,6.78
2019-03-25T01:25:18.495Z,7.10
2019-03-25T01:27:50.946Z,7.60
2019-03-25T01:30:19.355Z,7.83
2019-03-25T01:32:47.804Z,7.58
2019-03-25T01:35:16.184Z,7.83
2019-03-25T01:37:44.680Z,7.47
2019-03-25T01:40:14.605Z,7.80
2019-03-25T01:42:43.006Z,8.23
2019-03-25T01:45:11.551Z,8.85
2019-03-25T01:47:40.953Z,8.95
2019-03-25T01:50:11.359Z,9.00
2019-03-25T01:52:39.473Z,9.33
2019-03-25T01:55:13.441Z,7.85
2019-03-25T01:57:38.233Z,9.35
2019-03-25T02:00:07.676Z,8.47
2019-03-25T02:02:37.773Z,9.15
2019-03-25T02:05:07.192Z,8.95
2019-03-25T02:07:35.584Z,8.60
2019-03-25T02:10:05.833Z,9.00
2019-03-25T02:12:34.223Z,9.15
2019-03-25T02:15:02.649Z,9.47
2019-03-25T02:17:31.029Z,9.70
2019-03-25T02:19:59.413Z,9.48
2019-03-25T02:22:29.006Z,8.70
2019-03-25T02:24:57.453Z,9.80
2019-03-25T02:27:25.847Z,8.08
2019-03-25T02:29:54.254Z,7.05
2019-03-25T02:32:22.718Z,5.37
2019-03-25T02:34:52.190Z,5.33
2019-03-25T02:37:20.625Z,4.55
2019-03-25T02:39:49.025Z,4.17
2019-03-25T02:42:17.443Z,4.10
2019-03-25T02:44:47.952Z,4.17
2019-03-25T02:47:16.424Z,3.25
2019-03-25T02:49:44.833Z,3.10
2019-03-25T02:52:13.198Z,2.33
2019-03-25T02:54:45.778Z,2.67
2019-03-25T02:57:20.280Z,2.62
2019-03-25T02:59:48.676Z,2.20
2019-03-25T03:02:17.074Z,2.30
2019-03-25T03:04:45.467Z,2.98
2019-03-25T03:07:14.959Z,2.55
2019-03-25T03:09:43.339Z,2.53
2019-03-25T03:12:11.736Z,2.47
2019-03-25T03:14:42.019Z,2.50
2019-03-25T03:17:11.336Z,2.90
2019-03-25T03:19:39.731Z,3.30
2019-03-25T03:22:08.129Z,3.10
2019-03-25T03:24:36.508Z,3.77
2019-03-25T03:27:06.038Z,3.55
2019-03-25T03:29:35.498Z,3.17
2019-03-25T03:32:04.080Z,4.10
2019-03-25T03:34:35.379Z,3.90
2019-03-25T03:37:07.754Z,4.45
2019-03-25T03:39:36.144Z,4.20
2019-03-25T03:42:04.721Z,3.30
2019-03-25T03:44:34.227Z,3.47
2019-03-25T03:47:02.743Z,2.47
2019-03-25T03:49:34.627Z,2.30
2019-03-25T03:52:03.324Z,3.37
2019-03-25T03:54:32.307Z,3.20
2019-03-25T03:57:00.865Z,2.77
2019-03-25T03:59:29.251Z,2.85
2019-03-25T04:02:01.451Z,3.02
2019-03-25T04:04:29.846Z,2.83
2019-03-25T04:06:58.234Z,2.72
2019-03-25T04:09:31.913Z,2.35
2019-03-25T04:12:01.293Z,1.30
2019-03-25T04:14:29.768Z,0.90
2019-03-25T04:16:58.083Z,0.70
2019-03-25T04:19:26.480Z,0.90
2019-03-25T04:21:54.875Z,0.70
2019-03-25T04:24:23.281Z,0.70
2019-03-25T04:26:51.674Z,0.75
2019-03-25T04:29:20.090Z,1.30
2019-03-25T04:31:50.975Z,0.70
2019-03-25T04:34:19.392Z,1.00
2019-03-25T04:36:47.781Z,0.70
2019-03-25T04:39:16.196Z,1.00
2019-03-25T04:41:44.623Z,1.10
2019-03-25T04:44:12.997Z,1.20
2019-03-25T04:46:42.475Z,0.98
2019-03-25T04:49:10.858Z,1.30
2019-03-25T04:51:40.273Z,0.90
2019-03-25T04:54:12.473Z,1.05
2019-03-25T04:56:40.886Z,1.20
2019-03-25T04:59:09.282Z,1.00
2019-03-25T05:01:37.679Z,1.10
2019-03-25T05:04:06.078Z,0.98
2019-03-25T05:06:34.505Z,1.47
2019-03-25T05:09:03.247Z,0.90
2019-03-25T05:11:31.649Z,1.35
2019-03-25T05:14:00.078Z,1.20
2019-03-25T05:16:31.285Z,1.20
2019-03-25T05:18:59.670Z,1.12
2019-03-25T05:21:28.111Z,1.27
2019-03-25T05:23:57.603Z,1.30
2019-03-25T05:26:28.736Z,1.47
2019-03-25T05:28:58.008Z,1.77
2019-03-25T05:31:30.201Z,1.85
2019-03-25T05:33:58.641Z,2.27
2019-03-25T05:36:27.740Z,2.67
2019-03-25T05:38:56.188Z,2.22
2019-03-25T05:41:24.624Z,2.30
2019-03-25T05:43:53.002Z,2.47
2019-03-25T05:46:21.493Z,2.22
2019-03-25T05:48:49.918Z,2.45
2019-03-25T05:51:18.305Z,2.50
2019-03-25T05:53:46.734Z,3.42
2019-03-25T05:56:15.138Z,3.00
2019-03-25T05:58:43.541Z,2.25
2019-03-25T06:01:13.206Z,3.15
2019-03-25T06:03:41.582Z,2.77
2019-03-25T06:06:12.505Z,2.35
2019-03-25T06:08:40.900Z,2.27
2019-03-25T06:11:09.368Z,1.57
2019-03-25T06:13:37.746Z,1.60
2019-03-25T06:16:06.151Z,2.37
2019-03-25T06:18:34.554Z,1.77
2019-03-25T06:21:02.975Z,2.12
2019-03-25T06:23:31.395Z,1.90
2019-03-25T06:25:59.859Z,1.57
2019-03-25T06:28:30.431Z,2.30
2019-03-25T06:30:58.838Z,1.60
2019-03-25T06:33:27.225Z,1.67
2019-03-25T06:35:55.631Z,1.57
2019-03-25T06:38:24.023Z,1.90
2019-03-25T06:40:52.417Z,1.95
2019-03-25T06:43:20.874Z,2.37
2019-03-25T06:45:50.229Z,2.02
2019-03-25T06:48:18.596Z,1.55
2019-03-25T06:50:47.102Z,1.85
2019-03-25T06:53:15.506Z,1.20
2019-03-25T06:55:43.896Z,1.30
2019-03-25T06:58:14.166Z,1.85
2019-03-25T07:00:43.587Z,1.22
2019-03-25T07:03:11.973Z,1.50
2019-03-25T07:05:40.399Z,1.30
2019-03-25T07:08:08.790Z,1.00
2019-03-25T07:10:38.342Z,1.10
2019-03-25T07:13:06.902Z,1.50
2019-03-25T07:15:35.291Z,1.00
2019-03-25T07:18:06.807Z,1.10
2019-03-25T07:20:35.270Z,0.97
2019-03-25T07:23:03.685Z,1.20
2019-03-25T07:25:32.073Z,1.02
2019-03-25T07:28:00.457Z,1.45
2019-03-25T07:30:28.869Z,1.20
2019-03-25T07:32:57.247Z,1.98
2019-03-25T07:35:29.239Z,1.10
2019-03-25T07:37:57.666Z,1.10
2019-03-25T07:40:26.082Z,1.72
2019-03-25T07:42:54.467Z,1.50
2019-03-25T07:45:25.126Z,1.27
2019-03-25T07:47:53.536Z,1.87
2019-03-25T07:50:24.575Z,1.27
2019-03-25T07:52:52.983Z,1.20
2019-03-25T07:55:21.367Z,1.20
2019-03-25T07:57:51.761Z,1.85
2019-03-25T08:00:25.330Z,1.60
2019-03-25T08:02:53.792Z,1.15
2019-03-25T08:05:22.185Z,1.10
2019-03-25T08:07:50.543Z,1.50
2019-03-25T08:10:33.426Z,1.60
2019-03-25T08:13:04.970Z,1.37
2019-03-25T08:15:33.869Z,1.50
2019-03-25T08:18:02.499Z,1.85
2019-03-25T08:20:31.910Z,1.65
2019-03-25T08:23:01.943Z,2.52
2019-03-25T08:25:30.356Z,1.67
2019-03-25T08:28:00.339Z,2.00
2019-03-25T08:30:29.012Z,1.75
2019-03-25T08:32:57.458Z,1.62
2019-03-25T08:35:28.098Z,2.00
2019-03-25T08:37:56.058Z,2.80
2019-03-25T08:40:26.414Z,2.10
2019-03-25T08:42:54.797Z,2.37
2019-03-25T08:45:23.187Z,2.45
2019-03-25T08:47:51.563Z,2.08
2019-03-25T08:50:25.441Z,2.30
2019-03-25T08:52:53.842Z,2.50
2019-03-25T08:55:22.248Z,2.62
2019-03-25T08:57:50.648Z,2.72
2019-03-25T09:00:20.315Z,2.37
2019-03-25T09:02:48.728Z,3.08
2019-03-25T09:05:17.185Z,3.00
2019-03-25T09:07:45.582Z,3.58
2019-03-25T09:10:14.314Z,3.00
2019-03-25T09:12:42.705Z,2.45
2019-03-25T09:15:15.578Z,2.77
2019-03-25T09:17:43.954Z,3.30
2019-03-25T09:20:16.391Z,3.30
2019-03-25T09:25:13.865Z,2.40
2019-03-25T09:27:43.310Z,1.10
2019-03-25T09:30:14.876Z,1.15
2019-03-25T09:32:43.283Z,1.27
2019-03-25T09:35:12.134Z,1.02
2019-03-25T09:37:40.507Z,1.25
2019-03-25T09:40:10.558Z,1.62
2019-03-25T09:42:39.348Z,1.40
2019-03-25T09:45:13.077Z,1.42
2019-03-25T09:47:42.650Z,1.15
2019-03-25T09:50:13.840Z,1.70
2019-03-25T09:52:42.242Z,1.32
2019-03-25T09:55:16.577Z,1.32
2019-03-25T09:57:45.152Z,1.87
2019-03-25T10:00:13.977Z,2.30
2019-03-25T10:02:42.397Z,1.98
2019-03-25T10:05:12.112Z,1.90
2019-03-25T10:07:40.508Z,2.10
2019-03-25T10:10:09.458Z,2.15
2019-03-25T10:12:37.876Z,1.90
2019-03-25T10:15:08.404Z,1.80
2019-03-25T10:17:39.200Z,1.90
2019-03-25T10:20:08.039Z,1.32
2019-03-25T10:22:36.648Z,1.07
2019-03-25T10:25:07.796Z,1.40
2019-03-25T10:27:36.438Z,1.45
2019-03-25T10:30:12.420Z,1.22
2019-03-25T10:32:40.824Z,1.10
2019-03-25T10:35:09.844Z,1.30
2019-03-25T10:37:38.301Z,1.10
2019-03-25T10:40:07.259Z,1.00
2019-03-25T10:42:35.635Z,1.17
2019-03-25T10:45:06.126Z,1.52
2019-03-25T10:47:34.551Z,1.10
2019-03-25T10:50:02.935Z,1.40
2019-03-25T10:52:31.338Z,1.47
2019-03-25T10:54:59.765Z,1.82
2019-03-25T10:57:28.165Z,1.12
2019-03-25T10:59:56.551Z,0.98
2019-03-25T11:02:24.939Z,0.98
2019-03-25T11:04:53.312Z,1.50
2019-03-25T11:07:21.812Z,1.45
2019-03-25T11:09:50.278Z,1.12
2019-03-25T11:12:18.687Z,1.20
2019-03-25T11:14:47.096Z,1.25
2019-03-25T11:17:15.469Z,2.15
2019-03-25T11:19:43.848Z,1.00
2019-03-25T11:22:12.253Z,1.35
2019-03-25T11:24:40.696Z,1.13
2019-03-25T11:27:11.515Z,1.35
2019-03-25T11:29:42.638Z,1.27
2019-03-25T11:32:11.011Z,1.10
2019-03-25T11:34:39.424Z,0.88
2019-03-25T11:37:07.887Z,1.30
2019-03-25T11:39:36.269Z,1.30
2019-03-25T11:42:10.403Z,1.87
2019-03-25T11:44:42.669Z,1.13
2019-03-25T11:47:11.064Z,1.02
2019-03-25T11:49:39.469Z,1.30
2019-03-25T11:52:07.877Z,1.02
2019-03-25T11:54:36.797Z,0.80
2019-03-25T11:57:10.070Z,0.85
2019-03-25T11:59:40.595Z,0.60
2019-03-25T12:02:17.254Z,0.42
2019-03-25T12:04:39.137Z,0.50
2019-03-25T12:07:09.460Z,0.50
2019-03-25T12:09:37.863Z,0.60
2019-03-25T12:12:06.246Z,0.60
2019-03-25T12:14:40.125Z,0.60
2019-03-25T12:17:14.986Z,0.70
2019-03-25T12:22:22.203Z,0.70
2019-03-25T12:24:50.594Z,0.70
2019-03-25T12:27:19.051Z,1.00
2019-03-25T12:29:47.425Z,0.80
2019-03-25T12:32:15.824Z,1.27
2019-03-25T12:34:48.030Z,1.20
2019-03-25T12:37:17.381Z,1.25
2019-03-25T12:39:45.799Z,1.12
2019-03-25T12:42:16.402Z,1.20
2019-03-25T12:44:44.789Z,1.00
2019-03-25T12:47:13.196Z,1.20
2019-03-25T12:49:49.981Z,2.10
2019-03-25T12:52:18.384Z,1.42
2019-03-25T12:54:46.801Z,1.42
2019-03-25T12:57:19.781Z,1.52
2019-03-25T12:59:53.078Z,1.57
2019-03-25T13:02:21.457Z,1.30
2019-03-25T13:05:01.928Z,2.22
2019-03-25T13:07:53.298Z,1.32
2019-03-25T13:10:24.375Z,0.80
2019-03-25T13:12:56.904Z,0.40
2019-03-25T13:15:25.367Z,0.50
2019-03-25T13:17:53.752Z,0.70
2019-03-25T13:20:22.921Z,0.40
2019-03-25T13:22:57.570Z,0.55
2019-03-25T13:25:26.948Z,0.57
2019-03-25T13:27:55.326Z,0.82
2019-03-25T13:30:26.435Z,0.70
2019-03-25T13:32:54.897Z,0.60
2019-03-25T13:35:23.311Z,0.55
2019-03-25T13:37:51.711Z,0.50
2019-03-25T13:40:20.289Z,0.50
2019-03-25T13:42:48.679Z,0.72
2019-03-25T13:45:18.222Z,1.10
2019-03-25T13:47:46.633Z,0.50
2019-03-25T13:50:15.122Z,0.80
2019-03-25T13:52:44.596Z,0.50
2019-03-25T13:55:17.924Z,0.80
2019-03-25T13:57:48.311Z,0.72
2019-03-25T14:00:20.845Z,0.70
2019-03-25T14:05:16.826Z,0.90
2019-03-25T14:07:45.269Z,1.10
2019-03-25T14:10:16.927Z,1.70
2019-03-25T14:12:46.788Z,1.40
2019-03-25T14:15:15.256Z,1.05
2019-03-25T14:17:47.706Z,1.60
2019-03-25T14:20:17.737Z,1.35
2019-03-25T14:22:48.781Z,1.67
2019-03-25T14:25:17.181Z,1.90
2019-03-25T14:27:48.215Z,2.35
2019-03-25T14:30:16.955Z,2.10
2019-03-25T14:32:45.414Z,2.02
2019-03-25T14:35:14.019Z,1.50
2019-03-25T14:37:42.411Z,1.70
2019-03-25T14:40:11.111Z,1.60
2019-03-25T14:42:41.904Z,1.60
2019-03-25T14:45:10.579Z,1.37
2019-03-25T14:47:38.991Z,1.35
2019-03-25T14:50:08.311Z,0.90
2019-03-25T14:52:36.733Z,1.22
2019-03-25T14:55:08.411Z,1.80
2019-03-25T14:57:39.892Z,1.00
2019-03-25T15:00:24.477Z,0.93
2019-03-25T15:02:39.792Z,0.98
2019-03-25T15:05:11.138Z,1.12
2019-03-25T15:07:39.526Z,0.95
2019-03-25T15:10:08.369Z,1.45
2019-03-25T15:12:40.758Z,1.37
2019-03-25T15:15:10.567Z,1.30
2019-03-25T15:17:38.949Z,1.27
2019-03-25T15:20:15.393Z,1.37
2019-03-25T15:22:43.764Z,1.20
2019-03-25T15:25:13.883Z,1.37
2019-03-25T15:27:42.258Z,1.27
2019-03-25T15:30:11.286Z,2.15
2019-03-25T15:32:39.685Z,1.35
2019-03-25T15:35:08.601Z,1.60
2019-03-25T15:37:40.331Z,1.45
2019-03-25T15:40:16.823Z,1.35
2019-03-25T15:42:47.963Z,1.40
2019-03-25T15:45:17.574Z,2.15
2019-03-25T15:47:54.637Z,1.60
2019-03-25T15:50:23.975Z,1.40
2019-03-25T15:52:52.403Z,1.15
2019-03-25T15:55:23.890Z,1.40
2019-03-25T15:57:52.278Z,1.30
2019-03-25T16:00:27.719Z,1.75
2019-03-25T16:02:59.873Z,1.40
2019-03-25T16:05:33.677Z,1.50
2019-03-25T16:08:08.747Z,1.50
2019-03-25T16:10:37.179Z,1.50
2019-03-25T16:13:08.443Z,1.15
2019-03-25T16:15:46.426Z,1.32
2019-03-25T16:18:33.136Z,1.15
2019-03-25T16:21:04.650Z,1.22
2019-03-25T16:23:34.970Z,1.00
2019-03-25T16:26:04.658Z,0.80
2019-03-25T16:28:33.132Z,3.10
2019-03-25T16:31:08.571Z,1.12
2019-03-25T16:33:35.317Z,0.72
2019-03-25T16:36:16.280Z,1.10
2019-03-25T16:38:47.213Z,1.10
2019-03-25T16:41:21.887Z,0.90
2019-03-25T16:43:53.004Z,1.15
2019-03-25T16:46:21.407Z,0.90
2019-03-25T16:48:49.805Z,1.40
2019-03-25T16:51:19.183Z,1.35
2019-03-25T16:53:50.045Z,1.00
2019-03-25T16:56:18.440Z,0.88
2019-03-25T16:58:49.474Z,1.00
2019-03-25T17:01:20.275Z,0.98
2019-03-25T17:03:48.693Z,1.15
2019-03-25T17:06:17.086Z,1.03
2019-03-25T17:08:45.488Z,2.17
2019-03-25T17:11:13.904Z,1.20
2019-03-25T17:13:45.866Z,1.00
2019-03-25T17:16:14.495Z,1.20
2019-03-25T17:18:45.403Z,1.50
2019-03-25T17:21:27.030Z,1.22
2019-03-25T17:23:53.917Z,1.15
2019-03-25T17:26:24.957Z,1.50
2019-03-25T17:28:53.343Z,1.32
2019-03-25T17:31:21.735Z,1.20
2019-03-25T17:34:01.569Z,1.00
2019-03-25T17:36:33.907Z,1.20
2019-03-25T17:39:02.299Z,1.02
2019-03-25T17:41:33.421Z,1.12
2019-03-25T17:44:06.440Z,1.27
2019-03-25T17:46:38.874Z,1.30
2019-03-25T17:51:38.427Z,1.10
2019-03-25T17:54:13.954Z,1.55
2019-03-25T17:56:42.380Z,1.32
2019-03-25T17:59:10.831Z,1.50
2019-03-25T18:01:39.406Z,1.20
2019-03-25T18:04:07.878Z,1.30
2019-03-25T18:06:36.338Z,1.50
2019-03-25T18:09:08.991Z,1.37
2019-03-25T18:11:52.624Z,1.75
2019-03-25T18:14:20.493Z,1.62
2019-03-25T18:16:54.535Z,1.50
2019-03-25T18:19:25.408Z,1.90
2019-03-25T18:21:54.724Z,1.95
2019-03-25T18:24:23.111Z,1.67
2019-03-25T18:26:51.517Z,2.17
2019-03-25T18:29:19.900Z,2.30
2019-03-25T18:31:48.375Z,1.90
2019-03-25T18:34:32.015Z,2.00
2019-03-25T18:37:00.411Z,2.15
2019-03-25T18:39:29.751Z,3.12
2019-03-25T18:41:58.251Z,2.65
2019-03-25T18:44:27.657Z,2.16
2019-03-25T18:46:58.983Z,1.72
2019-03-25T18:49:27.386Z,2.50
2019-03-25T18:52:00.047Z,2.12
2019-03-25T18:54:29.464Z,2.25
2019-03-25T18:56:57.846Z,2.22
2019-03-25T18:59:27.189Z,2.28
2019-03-25T19:01:55.806Z,3.08
2019-03-25T19:04:33.327Z,2.37
2019-03-25T19:07:03.511Z,3.22
2019-03-25T19:09:34.973Z,2.65
2019-03-25T19:12:03.359Z,2.92
2019-03-25T19:14:31.769Z,3.15
2019-03-25T19:17:01.765Z,2.75
2019-03-25T19:19:38.581Z,3.05
2019-03-25T19:22:09.148Z,2.52
2019-03-25T19:24:38.711Z,2.83
2019-03-25T19:27:07.105Z,3.20
2019-03-25T19:29:35.617Z,3.30
2019-03-25T19:32:06.934Z,3.65
2019-03-25T19:34:36.560Z,3.60
2019-03-25T19:37:04.946Z,5.70
2019-03-25T19:39:33.357Z,5.00
2019-03-25T19:42:03.846Z,4.40
2019-03-25T19:44:33.665Z,3.87
2019-03-25T19:47:04.502Z,4.28
2019-03-25T19:49:36.471Z,4.33
2019-03-25T19:52:09.481Z,4.85
2019-03-25T19:54:39.179Z,4.55
2019-03-25T19:57:13.204Z,5.25
2019-03-25T19:59:41.593Z,5.33
2019-03-25T20:02:19.059Z,6.33
2019-03-25T20:04:40.182Z,5.67
2019-03-25T20:07:09.640Z,5.87
2019-03-25T20:09:38.065Z,6.67
2019-03-25T20:12:06.509Z,7.05
2019-03-25T20:14:38.487Z,8.53
2019-03-25T20:17:06.906Z,8.45
2019-03-25T20:19:42.414Z,8.73
2019-03-25T20:22:10.534Z,10.00
2019-03-25T20:24:38.891Z,9.00
2019-03-25T20:27:09.811Z,9.60
2019-03-25T20:29:45.855Z,10.10
2019-03-25T20:32:18.052Z,12.78
2019-03-25T20:34:48.087Z,11.12
2019-03-25T20:37:16.501Z,11.40
2019-03-25T20:39:45.427Z,12.50
2019-03-25T20:42:17.394Z,12.85
2019-03-25T20:44:45.835Z,12.05
2019-03-25T20:47:14.241Z,13.15
2019-03-25T20:49:44.224Z,14.10
2019-03-25T20:52:13.587Z,13.28
2019-03-25T20:54:43.315Z,14.07
2019-03-25T20:57:11.766Z,12.68
2019-03-25T20:59:40.193Z,12.25
2019-03-25T21:02:08.613Z,11.73
2019-03-25T21:04:40.913Z,10.43
2019-03-25T21:07:09.273Z,9.35
2019-03-25T21:09:37.778Z,10.57
2019-03-25T21:12:08.031Z,8.13
2019-03-25T21:14:36.496Z,8.00
2019-03-25T21:17:05.473Z,7.58
2019-03-25T21:19:33.827Z,7.63
2019-03-25T21:22:02.217Z,6.50
2019-03-25T21:24:33.484Z,7.35
2019-03-25T21:27:04.497Z,7.15
2019-03-25T21:29:32.896Z,8.30
2019-03-25T21:32:01.245Z,7.92
2019-03-25T21:34:34.717Z,6.87
2019-03-25T21:37:05.610Z,7.28
2019-03-25T21:39:33.467Z,7.58
2019-03-25T21:42:02.803Z,7.55
2019-03-25T21:44:35.339Z,7.47
2019-03-25T21:47:03.848Z,7.30
2019-03-25T21:49:35.969Z,6.45
2019-03-25T21:52:04.373Z,6.08
2019-03-25T21:54:33.339Z,6.07
2019-03-25T21:57:01.743Z,6.62
2019-03-25T21:59:32.493Z,6.20
2019-03-25T22:02:00.889Z,5.75
2019-03-25T22:04:29.811Z,5.58
2019-03-25T22:07:00.208Z,5.03
2019-03-25T22:09:36.213Z,5.85
2019-03-25T22:12:12.381Z,5.08
2019-03-25T22:14:40.803Z,4.77
2019-03-25T22:17:09.208Z,5.45
2019-03-25T22:19:37.599Z,5.60
2019-03-25T22:22:05.991Z,5.53
2019-03-25T22:24:34.455Z,5.05
2019-03-25T22:27:02.931Z,5.03
2019-03-25T22:29:34.017Z,5.08
2019-03-25T22:32:02.391Z,5.10
2019-03-25T22:34:30.767Z,5.62
2019-03-25T22:37:00.253Z,5.50
2019-03-25T22:39:37.347Z,5.98
2019-03-25T22:42:05.757Z,7.67
2019-03-25T22:44:34.143Z,6.53
2019-03-25T22:47:02.557Z,7.30
2019-03-25T22:49:33.812Z,6.25
2019-03-25T22:52:04.643Z,6.72
2019-03-25T22:54:33.056Z,6.60
2019-03-25T22:57:01.660Z,7.78
2019-03-25T22:59:30.042Z,7.85
2019-03-25T23:01:58.578Z,7.33
2019-03-25T23:04:29.305Z,7.38
2019-03-25T23:06:57.687Z,7.62
2019-03-25T23:09:26.084Z,7.20
2019-03-25T23:11:54.469Z,7.40
2019-03-25T23:14:25.234Z,7.78
2019-03-25T23:16:53.645Z,7.62
2019-03-25T23:19:22.064Z,8.18
2019-03-25T23:21:50.481Z,8.40
2019-03-25T23:24:18.876Z,8.60
2019-03-25T23:26:47.268Z,8.68
2019-03-25T23:29:15.650Z,8.50
2019-03-25T23:31:44.058Z,8.95
2019-03-25T23:34:12.442Z,8.55
2019-03-25T23:36:40.851Z,8.43
2019-03-25T23:39:12.839Z,9.13
2019-03-25T23:44:08.841Z,7.50
2019-03-25T23:46:37.225Z,8.90
2019-03-25T23:49:05.660Z,8.40
2019-03-25T23:51:36.550Z,9.68
2019-03-25T23:54:12.726Z,8.13
2019-03-25T23:56:41.962Z,8.68
2019-03-25T23:59:10.366Z,9.90
